This is the latest recevied weather packets stored in our database for station/object JA0BES-13. If no packets are shown the sender has not sent any weather packets the latest 10 day(s).
| Time | Temp. | Humidity | Pressure | Rain* | Wind** | Luminosity | Snow |
|---|---|---|---|---|---|---|---|
| 1788155144 | 95° F | 84% | 757.7 mmHg | 0 in | - | - | - |
| 1788154544 | 97° F | 82% | 757.7 mmHg | 0 in | - | - | - |
| 1788153944 | 97° F | 81% | 757.6 mmHg | 0 in | - | - | - |
| 1788153343 | 96° F | 74% | 757.5 mmHg | 0 in | - | - | - |
| 1788152743 | 96° F | 70% | 757.6 mmHg | 0 in | - | - | - |
| 1788152143 | 96° F | 71% | 757.6 mmHg | 0 in | - | - | - |
| 1788151542 | 96° F | 72% | 757.7 mmHg | 0 in | - | - | - |
| 1788150942 | 96° F | 71% | 757.8 mmHg | 0 in | - | - | - |
| 1788150341 | 96° F | 72% | 757.9 mmHg | 0 in | - | - | - |
| 1788149741 | 96° F | 73% | 757.9 mmHg | 0 in | - | - | - |
| 1788149141 | 97° F | 71% | 757.9 mmHg | 0 in | - | - | - |
| 1788148541 | 97° F | 74% | 757.9 mmHg | 0 in | - | - | - |
| 1788147940 | 97° F | 74% | 758.1 mmHg | 0 in | - | - | - |
| 1788147340 | 96° F | 74% | 758.2 mmHg | 0 in | - | - | - |
| 1788146739 | 94° F | 78% | 758.2 mmHg | 0 in | - | - | - |
| 1788146139 | 90° F | 87% | 758.3 mmHg | 0 in | - | - | - |
| 1788145539 | 90° F | 88% | 758.5 mmHg | 0 in | - | - | - |
| 1788144939 | 89° F | 90% | 758.5 mmHg | 0 in | - | - | - |
| 1788144338 | 88° F | 90% | 758.5 mmHg | 0 in | - | - | - |
| 1788143738 | 88° F | 91% | 758.6 mmHg | 0 in | - | - | - |
| 1788143137 | 88° F | 94% | 758.7 mmHg | 0 in | - | - | - |
| 1788142537 | 87° F | 95% | 758.7 mmHg | 0 in | - | - | - |
| 1788141937 | 87° F | 97% | 758.7 mmHg | 0 in | - | - | - |
| 1788141337 | 87° F | 100% | 758.9 mmHg | 0 in | - | - | - |
| 1788140736 | 86° F | 100% | 759 mmHg | 0 in | - | - | - |
* Rain since midnight (hover to see other rain measurements)
** Current wind speed in m/s (hover to see current wind gust speed)